Time;durP1;ratioP1;P1;durP2;ratioP2;P2;SDS_P1;SDS_P2;PMS_P1;PMS_P2;Temp;Humidity;BMP_temperature;BMP_pressure;BME280_temperature;BME280_humidity;BME280_pressure;Samples;Min_cycle;Max_cycle;Signal;HPM_P1;HPM_P2
2023/03/06 00:02:01;;;;;;;;;;;3.20;99.90;;;;;;4992152;28;20032;-77
2023/03/06 00:04:27;;;;;;;;;;;3.10;99.90;;;;;;4992873;28;19933;-77
2023/03/06 00:06:53;;;;;;;;;;;3.20;99.90;;;;;;4990889;28;19922;-77
2023/03/06 00:09:19;;;;;;;;;;;3.10;99.90;;;;;;4992578;28;19917;-78
2023/03/06 00:11:45;;;;;;;;;;;3.20;99.90;;;;;;4993519;28;19968;-78
2023/03/06 00:14:11;;;;;;;;;;;3.10;99.90;;;;;;4992665;28;19956;-77
2023/03/06 00:16:37;;;;;;;;;;;3.20;99.90;;;;;;4978633;28;19914;-77
2023/03/06 00:19:03;;;;;;;;;;;3.20;99.90;;;;;;4996600;28;19920;-78
2023/03/06 00:21:29;;;;;;;;;;;3.10;99.90;;;;;;4999350;28;20279;-78
2023/03/06 00:23:55;;;;;;;;;;;3.10;99.90;;;;;;5001329;28;19953;-77
2023/03/06 00:26:21;;;;;;;;;;;3.10;99.90;;;;;;4996662;28;20169;-79
2023/03/06 00:28:47;;;;;;;;;;;3.10;99.90;;;;;;4995633;28;20275;-77
2023/03/06 00:31:15;;;;;;;;;;;3.10;99.90;;;;;;4993627;28;20005;-77
2023/03/06 00:33:42;;;;;;;;;;;3.10;99.90;;;;;;4997215;28;19953;-79
2023/03/06 00:36:08;;;;;;;;;;;3.10;99.90;;;;;;4980363;28;19914;-77
2023/03/06 00:38:36;;;;;;;;;;;3.10;99.90;;;;;;4997956;28;19917;-77
2023/03/06 00:41:05;;;;;;;;;;;3.10;99.90;;;;;;4981299;28;19998;-78
2023/03/06 00:43:31;;;;;;;;;;;3.10;99.90;;;;;;4983411;28;19914;-78
2023/03/06 00:45:57;;;;;;;;;;;3.10;99.90;;;;;;4995436;28;20430;-78
2023/03/06 00:48:23;;;;;;;;;;;3.10;99.90;;;;;;5001216;28;19925;-78
2023/03/06 00:50:51;;;;;;;;;;;3.00;99.90;;;;;;4983090;28;19914;-78
2023/03/06 00:53:17;;;;;;;;;;;3.00;99.90;;;;;;4998613;28;19964;-77
2023/03/06 00:55:44;;;;;;;;;;;3.00;99.90;;;;;;4998138;28;19989;-79
2023/03/06 00:58:10;;;;;;;;;;;3.00;99.90;;;;;;4996206;28;19914;-78
2023/03/06 01:00:36;;;;;;;;;;;3.00;99.90;;;;;;4982335;28;19914;-78
2023/03/06 01:03:02;;;;;;;;;;;3.00;99.90;;;;;;4983046;28;19914;-78
2023/03/06 01:05:29;;;;;;;;;;;3.00;99.90;;;;;;4995131;28;19945;-78
2023/03/06 01:07:55;;;;;;;;;;;3.10;99.90;;;;;;4992852;28;19941;-78
2023/03/06 01:10:21;;;;;;;;;;;3.10;99.90;;;;;;4996095;28;19922;-78
2023/03/06 01:12:47;;;;;;;;;;;3.10;99.90;;;;;;4995786;28;19918;-79
2023/03/06 01:15:13;;;;;;;;;;;3.10;99.90;;;;;;4996947;28;19996;-77
2023/03/06 01:17:39;;;;;;;;;;;3.10;99.90;;;;;;4994214;28;20000;-78
2023/03/06 01:20:05;;;;;;;;;;;3.00;99.90;;;;;;4999819;28;20208;-78
2023/03/06 01:22:31;;;;;;;;;;;3.00;99.90;;;;;;4996008;28;19914;-77
2023/03/06 01:24:58;;;;;;;;;;;3.00;99.90;;;;;;4980650;28;19910;-78
2023/03/06 01:27:24;;;;;;;;;;;3.00;99.90;;;;;;4994158;28;19968;-80
2023/03/06 01:29:50;;;;;;;;;;;3.00;99.90;;;;;;4993923;28;19965;-80
2023/03/06 01:32:16;;;;;;;;;;;3.00;99.90;;;;;;4979189;28;19914;-79
2023/03/06 01:34:42;;;;;;;;;;;3.00;99.90;;;;;;4997639;28;19914;-78
2023/03/06 01:37:08;;;;;;;;;;;3.10;99.90;;;;;;4994750;28;19913;-78
2023/03/06 01:39:34;;;;;;;;;;;3.10;99.90;;;;;;4981272;28;19961;-78
2023/03/06 01:42:00;;;;;;;;;;;3.00;99.90;;;;;;4994037;28;19922;-78
2023/03/06 01:44:26;;;;;;;;;;;3.00;99.90;;;;;;5000352;28;19925;-77
2023/03/06 01:46:52;;;;;;;;;;;3.00;99.90;;;;;;4996209;28;20271;-77
2023/03/06 01:49:18;;;;;;;;;;;3.00;99.90;;;;;;4994469;28;19957;-77
2023/03/06 01:51:50;;;;;;;;;;;3.00;99.90;;;;;;4995790;28;19949;-76
2023/03/06 01:54:19;;;;;;;;;;;2.90;99.90;;;;;;4995846;28;20370;-77
2023/03/06 01:56:46;;;;;;;;;;;2.90;99.90;;;;;;4994927;28;19936;-76
2023/03/06 01:59:12;;;;;;;;;;;3.00;99.90;;;;;;5002639;28;19913;-78
2023/03/06 02:01:39;;;;;;;;;;;2.90;99.90;;;;;;4987315;28;20393;-77
2023/03/06 02:04:05;;;;;;;;;;;2.90;99.90;;;;;;4989190;28;19922;-77
2023/03/06 02:06:33;;;;;;;;;;;3.00;99.90;;;;;;5008735;28;19929;-77
2023/03/06 02:09:05;;;;;;;;;;;3.00;99.90;;;;;;5016486;28;20418;-78
2023/03/06 02:11:31;;;;;;;;;;;3.00;99.90;;;;;;4997353;28;19921;-76
2023/03/06 02:13:57;;;;;;;;;;;3.00;99.90;;;;;;4994400;28;20394;-76
2023/03/06 02:16:25;;;;;;;;;;;3.00;99.90;;;;;;4985209;28;19917;-77
2023/03/06 02:18:51;;;;;;;;;;;3.00;99.90;;;;;;4979331;28;19914;-77
2023/03/06 02:21:25;;;;;;;;;;;3.10;99.90;;;;;;4992849;28;19913;-77
2023/03/06 02:24:06;;;;;;;;;;;3.10;99.90;;;;;;4993758;28;19921;-77
2023/03/06 02:26:33;;;;;;;;;;;3.00;99.90;;;;;;4986519;28;20390;-76
2023/03/06 02:28:59;;;;;;;;;;;3.00;99.90;;;;;;4997157;28;19921;-76
2023/03/06 02:31:27;;;;;;;;;;;3.00;99.90;;;;;;4993751;28;19914;-77
2023/03/06 02:34:04;;;;;;;;;;;3.00;99.90;;;;;;4993879;28;20363;-78
2023/03/06 02:36:32;;;;;;;;;;;3.00;99.90;;;;;;4994928;28;19914;-77
2023/03/06 02:38:58;;;;;;;;;;;3.00;99.90;;;;;;4986393;28;19910;-78
2023/03/06 02:41:24;;;;;;;;;;;3.10;99.90;;;;;;4976672;28;19914;-77
2023/03/06 02:43:51;;;;;;;;;;;3.00;99.90;;;;;;4985471;28;20251;-77
2023/03/06 02:46:17;;;;;;;;;;;3.10;99.90;;;;;;4992475;28;20374;-77
2023/03/06 02:48:43;;;;;;;;;;;3.10;99.90;;;;;;4992658;28;20282;-76
2023/03/06 02:51:09;;;;;;;;;;;3.10;99.90;;;;;;4993298;28;19914;-77
2023/03/06 02:53:35;;;;;;;;;;;3.00;99.90;;;;;;4979948;28;19925;-76
2023/03/06 02:56:01;;;;;;;;;;;3.00;99.90;;;;;;4980993;28;19914;-76
2023/03/06 02:58:27;;;;;;;;;;;2.90;99.90;;;;;;4993404;28;20354;-77
2023/03/06 03:00:53;;;;;;;;;;;2.90;99.90;;;;;;4978457;28;19916;-76
2023/03/06 03:03:20;;;;;;;;;;;2.80;99.90;;;;;;4981049;28;19937;-77
2023/03/06 03:05:46;;;;;;;;;;;2.80;99.90;;;;;;4978440;28;20398;-77
2023/03/06 03:08:20;;;;;;;;;;;2.80;99.90;;;;;;4980175;28;20405;-78
2023/03/06 03:10:49;;;;;;;;;;;2.80;99.90;;;;;;4993409;28;20282;-79
2023/03/06 03:13:16;;;;;;;;;;;2.70;99.90;;;;;;4997245;28;20286;-78
2023/03/06 03:15:43;;;;;;;;;;;2.70;99.90;;;;;;4962946;28;20271;-78
2023/03/06 03:18:09;;;;;;;;;;;2.70;99.90;;;;;;4978491;28;19924;-78
2023/03/06 03:20:40;;;;;;;;;;;2.70;99.90;;;;;;4978209;28;20279;-78
2023/03/06 03:23:05;;;;;;;;;;;2.60;99.90;;;;;;4975118;28;19914;-78
2023/03/06 03:25:32;;;;;;;;;;;2.70;99.90;;;;;;4969568;28;20351;-78
2023/03/06 03:27:58;;;;;;;;;;;2.60;99.90;;;;;;4976536;28;20291;-78
2023/03/06 03:30:25;;;;;;;;;;;2.60;99.90;;;;;;4977466;28;19925;-77
2023/03/06 03:32:51;;;;;;;;;;;2.60;99.90;;;;;;4976614;28;20009;-79
2023/03/06 03:35:18;;;;;;;;;;;2.60;99.90;;;;;;4994911;28;19913;-78
2023/03/06 03:37:45;;;;;;;;;;;2.60;99.90;;;;;;4981385;28;19913;-78
2023/03/06 03:40:12;;;;;;;;;;;2.50;99.90;;;;;;4983889;28;19921;-79
2023/03/06 03:42:38;;;;;;;;;;;2.50;99.90;;;;;;4992541;28;20291;-79
2023/03/06 03:45:05;;;;;;;;;;;2.50;99.90;;;;;;4978139;28;19914;-79
2023/03/06 03:47:31;;;;;;;;;;;2.50;99.90;;;;;;4980939;28;19918;-79
2023/03/06 03:49:57;;;;;;;;;;;2.50;99.90;;;;;;4992308;28;20260;-79
2023/03/06 03:52:24;;;;;;;;;;;2.50;99.90;;;;;;5001193;28;19920;-78
2023/03/06 03:54:49;;;;;;;;;;;2.50;99.90;;;;;;5016818;28;19973;-78
2023/03/06 03:57:15;;;;;;;;;;;2.50;99.90;;;;;;4989400;28;19952;-78
2023/03/06 03:59:47;;;;;;;;;;;2.60;99.90;;;;;;4984698;28;20315;-78
2023/03/06 04:02:42;;;;;;;;;;;2.60;99.90;;;;;;5002244;28;19914;-78
2023/03/06 04:05:17;;;;;;;;;;;2.60;99.90;;;;;;4996884;28;19925;-77
2023/03/06 04:07:43;;;;;;;;;;;2.70;99.90;;;;;;4979816;28;19929;-77
2023/03/06 04:10:11;;;;;;;;;;;2.70;99.90;;;;;;4981677;28;20274;-77
2023/03/06 04:12:37;;;;;;;;;;;2.70;99.90;;;;;;4979273;28;19925;-77
2023/03/06 04:15:04;;;;;;;;;;;2.70;99.90;;;;;;4996294;28;19917;-77
2023/03/06 04:17:32;;;;;;;;;;;2.70;99.90;;;;;;4997367;28;19909;-77
2023/03/06 04:19:59;;;;;;;;;;;2.70;99.90;;;;;;4982017;28;19914;-77
2023/03/06 04:22:25;;;;;;;;;;;2.60;99.90;;;;;;4989708;28;20357;-77
2023/03/06 04:24:52;;;;;;;;;;;2.50;99.90;;;;;;4987022;28;19910;-77
2023/03/06 04:27:19;;;;;;;;;;;2.50;99.90;;;;;;4978992;28;20302;-77
2023/03/06 04:29:46;;;;;;;;;;;2.50;99.90;;;;;;4995194;28;19914;-77
2023/03/06 04:32:12;;;;;;;;;;;2.50;99.90;;;;;;4987419;28;20218;-77
2023/03/06 04:34:39;;;;;;;;;;;2.60;99.90;;;;;;4984177;28;19910;-79
2023/03/06 04:37:06;;;;;;;;;;;2.60;99.90;;;;;;4994328;28;19913;-79
2023/03/06 04:39:33;;;;;;;;;;;2.60;99.90;;;;;;4994601;28;19917;-79
2023/03/06 04:41:59;;;;;;;;;;;2.60;99.90;;;;;;4995857;28;20366;-79
2023/03/06 04:44:25;;;;;;;;;;;2.70;99.90;;;;;;4998024;28;19943;-77
2023/03/06 04:46:50;;;;;;;;;;;2.70;99.90;;;;;;4994429;28;19968;-77
2023/03/06 04:49:16;;;;;;;;;;;2.80;99.90;;;;;;4995343;28;19952;-77
2023/03/06 04:51:42;;;;;;;;;;;2.90;99.90;;;;;;4999191;28;20453;-77
2023/03/06 04:54:08;;;;;;;;;;;2.80;99.90;;;;;;4995127;28;20319;-79
2023/03/06 04:56:34;;;;;;;;;;;2.90;99.90;;;;;;4981696;28;19968;-79
2023/03/06 04:59:01;;;;;;;;;;;2.90;99.90;;;;;;4982320;28;19953;-80
2023/03/06 05:01:27;;;;;;;;;;;2.90;99.90;;;;;;4995940;28;19925;-79
2023/03/06 05:03:53;;;;;;;;;;;2.90;99.90;;;;;;5001357;28;19922;-80
2023/03/06 05:06:19;;;;;;;;;;;2.90;99.90;;;;;;4992820;28;19914;-80
2023/03/06 05:08:45;;;;;;;;;;;2.90;99.90;;;;;;5001081;28;20278;-80
2023/03/06 05:11:11;;;;;;;;;;;2.80;99.90;;;;;;4995753;28;19914;-80
2023/03/06 05:13:36;;;;;;;;;;;2.80;99.90;;;;;;4994396;28;20034;-80
2023/03/06 05:16:03;;;;;;;;;;;2.80;99.90;;;;;;4997461;28;19972;-80
2023/03/06 05:18:29;;;;;;;;;;;2.80;99.90;;;;;;4997733;28;19909;-80
2023/03/06 05:20:58;;;;;;;;;;;2.80;99.90;;;;;;4995175;28;19914;-81
2023/03/06 05:23:28;;;;;;;;;;;2.70;99.90;;;;;;4989916;28;19910;-79
2023/03/06 05:25:54;;;;;;;;;;;2.70;99.90;;;;;;4998133;28;20374;-79
2023/03/06 05:28:20;;;;;;;;;;;2.70;99.90;;;;;;4995219;28;19917;-79
2023/03/06 05:30:47;;;;;;;;;;;2.70;99.90;;;;;;4998136;28;20263;-78
2023/03/06 05:33:13;;;;;;;;;;;2.70;99.90;;;;;;4994726;28;19913;-79
2023/03/06 05:35:43;;;;;;;;;;;2.60;99.90;;;;;;4994485;28;20382;-79
2023/03/06 05:38:09;;;;;;;;;;;2.60;99.90;;;;;;4987918;28;19921;-79
2023/03/06 05:40:35;;;;;;;;;;;2.60;99.90;;;;;;5016461;28;19914;-78
2023/03/06 05:43:01;;;;;;;;;;;2.60;99.90;;;;;;5009004;28;19918;-78
2023/03/06 05:45:27;;;;;;;;;;;2.60;99.90;;;;;;5001021;28;19952;-78
2023/03/06 05:47:53;;;;;;;;;;;2.60;99.90;;;;;;4995505;28;19918;-78
2023/03/06 05:50:19;;;;;;;;;;;2.60;99.90;;;;;;4997466;28;20421;-78
2023/03/06 05:52:45;;;;;;;;;;;2.60;99.90;;;;;;4997759;28;19914;-78
2023/03/06 05:55:11;;;;;;;;;;;2.60;99.90;;;;;;4994531;28;19917;-78
2023/03/06 05:57:37;;;;;;;;;;;2.70;99.90;;;;;;4992377;28;20323;-79
2023/03/06 06:00:03;;;;;;;;;;;2.80;99.90;;;;;;4991898;28;19932;-79
2023/03/06 06:02:38;;;;;;;;;;;3.10;99.90;;;;;;4998687;28;19913;-78
2023/03/06 06:05:04;;;;;;;;;;;3.20;99.90;;;;;;4995763;28;20342;-79
2023/03/06 06:07:31;;;;;;;;;;;3.20;99.90;;;;;;4994535;28;19925;-78
2023/03/06 06:09:57;;;;;;;;;;;3.10;99.90;;;;;;4996452;28;20379;-79
2023/03/06 06:12:23;;;;;;;;;;;3.10;99.90;;;;;;4994105;28;19928;-78
2023/03/06 06:14:49;;;;;;;;;;;3.10;99.90;;;;;;4993318;28;19914;-80
2023/03/06 06:17:15;;;;;;;;;;;3.00;99.90;;;;;;4995966;28;19913;-79
2023/03/06 06:19:41;;;;;;;;;;;3.00;99.90;;;;;;4995091;28;19921;-79
2023/03/06 06:22:07;;;;;;;;;;;3.00;99.90;;;;;;4994088;28;19914;-79
2023/03/06 06:24:33;;;;;;;;;;;3.00;99.90;;;;;;4994037;28;19940;-79
2023/03/06 06:27:00;;;;;;;;;;;2.90;99.90;;;;;;4993944;28;20000;-79
2023/03/06 06:29:26;;;;;;;;;;;2.90;99.90;;;;;;4995029;28;19921;-78
2023/03/06 06:31:52;;;;;;;;;;;2.90;99.90;;;;;;4995315;28;19921;-78
2023/03/06 06:34:19;;;;;;;;;;;2.90;99.90;;;;;;4993021;28;20406;-79
2023/03/06 06:36:45;;;;;;;;;;;2.90;99.90;;;;;;4998849;28;20367;-79
2023/03/06 06:39:13;;;;;;;;;;;2.90;99.90;;;;;;4997399;28;19914;-79
2023/03/06 06:41:39;;;;;;;;;;;2.80;99.90;;;;;;4996098;28;19921;-79
2023/03/06 06:44:06;;;;;;;;;;;2.80;99.90;;;;;;4992789;28;19914;-79
2023/03/06 06:46:33;;;;;;;;;;;2.80;1.00;;;;;;4984830;28;19914;-82
2023/03/06 06:49:01;;;;;;;;;;;2.90;99.90;;;;;;4993520;28;19918;-81
2023/03/06 06:51:29;;;;;;;;;;;2.90;99.90;;;;;;5000977;28;19914;-79
2023/03/06 06:53:55;;;;;;;;;;;2.90;99.90;;;;;;4992541;28;19914;-79
2023/03/06 06:56:21;;;;;;;;;;;3.00;99.90;;;;;;4986194;28;19941;-81
2023/03/06 06:58:47;;;;;;;;;;;3.10;99.90;;;;;;4993973;28;19909;-81
2023/03/06 07:01:13;;;;;;;;;;;3.30;99.90;;;;;;4993462;28;19914;-81
2023/03/06 07:03:39;;;;;;;;;;;3.30;99.90;;;;;;4992160;28;20399;-81
2023/03/06 07:06:05;;;;;;;;;;;3.40;99.90;;;;;;4993464;28;19913;-80
2023/03/06 07:08:32;;;;;;;;;;;3.40;99.90;;;;;;4997247;28;20315;-82
2023/03/06 07:10:58;;;;;;;;;;;3.40;99.90;;;;;;4993102;28;20267;-80
2023/03/06 07:13:24;;;;;;;;;;;3.40;99.90;;;;;;4994512;28;19924;-80
2023/03/06 07:15:50;;;;;;;;;;;3.50;99.90;;;;;;4992848;28;20040;-81
2023/03/06 07:18:16;;;;;;;;;;;3.50;99.90;;;;;;4988585;28;19967;-79
2023/03/06 07:20:42;;;;;;;;;;;3.50;99.90;;;;;;5006945;28;19921;-84
2023/03/06 07:23:10;;;;;;;;;;;3.50;99.90;;;;;;4991404;28;19920;-82
2023/03/06 07:25:36;;;;;;;;;;;3.60;99.90;;;;;;5013242;28;20379;-82
2023/03/06 07:28:02;;;;;;;;;;;3.70;99.90;;;;;;5022108;28;19925;-83
2023/03/06 07:30:31;;;;;;;;;;;3.80;99.90;;;;;;5023142;28;19917;-82
2023/03/06 07:32:57;;;;;;;;;;;3.80;99.90;;;;;;5010464;28;20108;-80
2023/03/06 07:35:24;;;;;;;;;;;3.90;99.90;;;;;;5001204;28;19922;-80
2023/03/06 07:37:50;;;;;;;;;;;4.10;99.90;;;;;;4998411;28;19920;-77
2023/03/06 07:40:18;;;;;;;;;;;4.20;99.90;;;;;;4979853;28;19925;-80
2023/03/06 07:42:44;;;;;;;;;;;4.40;99.90;;;;;;4967806;28;19921;-80
2023/03/06 07:45:17;;;;;;;;;;;4.60;99.90;;;;;;4980681;28;19921;-77
2023/03/06 07:47:44;;;;;;;;;;;5.00;99.90;;;;;;4982079;28;20383;-75
2023/03/06 07:50:10;;;;;;;;;;;5.10;99.90;;;;;;4982323;28;19913;-77
2023/03/06 07:52:36;;;;;;;;;;;4.90;99.90;;;;;;4956709;28;19921;-76
2023/03/06 07:55:03;;;;;;;;;;;4.80;99.90;;;;;;4960393;28;19922;-76
2023/03/06 07:57:29;;;;;;;;;;;4.80;99.90;;;;;;4979237;28;20377;-77
2023/03/06 07:59:55;;;;;;;;;;;4.80;99.90;;;;;;4982337;28;20107;-77
2023/03/06 08:02:22;;;;;;;;;;;4.90;99.90;;;;;;4968121;28;19914;-76
2023/03/06 08:04:52;;;;;;;;;;;4.90;99.90;;;;;;4971559;28;20315;-76
2023/03/06 08:07:19;;;;;;;;;;;5.00;99.90;;;;;;4974797;28;19947;-76
2023/03/06 08:09:46;;;;;;;;;;;4.80;99.90;;;;;;4983880;28;20010;-76
2023/03/06 08:12:13;;;;;;;;;;;4.70;99.90;;;;;;4953298;28;19957;-77
2023/03/06 08:14:40;;;;;;;;;;;4.60;99.90;;;;;;4958304;28;19914;-76
2023/03/06 08:17:06;;;;;;;;;;;4.50;99.90;;;;;;4984950;28;19914;-77
2023/03/06 08:19:33;;;;;;;;;;;4.60;99.90;;;;;;4978474;28;19917;-77
2023/03/06 08:21:59;;;;;;;;;;;4.70;99.90;;;;;;4978109;28;19921;-77
2023/03/06 08:24:26;;;;;;;;;;;4.70;99.90;;;;;;4976621;28;19914;-76
2023/03/06 08:26:52;;;;;;;;;;;4.70;99.90;;;;;;4976404;28;19914;-77
2023/03/06 08:29:19;;;;;;;;;;;4.60;99.90;;;;;;4977681;28;20359;-77
2023/03/06 08:31:46;;;;;;;;;;;4.60;99.90;;;;;;4975440;28;19920;-77
2023/03/06 08:34:14;;;;;;;;;;;4.60;99.90;;;;;;4984909;28;19914;-76
2023/03/06 08:36:40;;;;;;;;;;;4.60;99.90;;;;;;4985982;28;19920;-77
2023/03/06 08:39:06;;;;;;;;;;;4.70;99.90;;;;;;4981376;28;19914;-77
2023/03/06 08:41:33;;;;;;;;;;;4.70;99.90;;;;;;4987422;28;19928;-77
2023/03/06 08:43:59;;;;;;;;;;;4.70;99.90;;;;;;4978264;28;20011;-77
2023/03/06 08:46:26;;;;;;;;;;;4.70;99.90;;;;;;4997962;28;19914;-77
2023/03/06 08:48:52;;;;;;;;;;;4.70;99.90;;;;;;4996137;28;19918;-77
2023/03/06 08:51:20;;;;;;;;;;;4.70;99.90;;;;;;4934361;29;19923;-77
2023/03/06 08:53:46;;;;;;;;;;;4.70;99.90;;;;;;4919400;29;19915;-78
2023/03/06 08:56:15;;;;;;;;;;;4.70;99.90;;;;;;4937972;29;20007;-79
2023/03/06 08:58:41;;;;;;;;;;;4.70;99.90;;;;;;4952857;28;20319;-79
2023/03/06 09:01:12;;;;;;;;;;;4.70;99.90;;;;;;4924038;29;19940;-79
2023/03/06 09:03:39;;;;;;;;;;;4.80;99.90;;;;;;4952804;29;19914;-80
2023/03/06 09:06:08;;;;;;;;;;;4.70;99.90;;;;;;4929473;29;19929;-79
2023/03/06 09:08:34;;;;;;;;;;;4.60;99.90;;;;;;4949138;28;20316;-79
2023/03/06 09:11:00;;;;;;;;;;;4.60;99.90;;;;;;4956531;28;19965;-77
2023/03/06 09:13:26;;;;;;;;;;;4.60;99.90;;;;;;4961353;28;20008;-79
2023/03/06 09:15:52;;;;;;;;;;;4.60;99.90;;;;;;4952462;29;19954;-78
2023/03/06 09:18:18;;;;;;;;;;;4.50;99.90;;;;;;4953822;29;19919;-77
2023/03/06 09:20:44;;;;;;;;;;;4.60;99.90;;;;;;4921228;29;19921;-79
2023/03/06 09:23:10;;;;;;;;;;;4.70;99.90;;;;;;4973850;28;19914;-77
2023/03/06 09:25:36;;;;;;;;;;;4.60;99.90;;;;;;4995378;28;20303;-77
2023/03/06 09:28:02;;;;;;;;;;;4.60;99.90;;;;;;4989934;28;19914;-78
2023/03/06 09:30:28;;;;;;;;;;;4.60;99.90;;;;;;4989056;28;19918;-77
2023/03/06 09:32:55;;;;;;;;;;;4.60;99.90;;;;;;4995067;28;19928;-82
2023/03/06 09:35:21;;;;;;;;;;;4.70;99.90;;;;;;4998585;28;20291;-84
2023/03/06 09:37:47;;;;;;;;;;;4.70;99.90;;;;;;5012541;28;20126;-83
2023/03/06 09:40:15;;;;;;;;;;;4.70;99.90;;;;;;5000175;28;20442;-84
2023/03/06 09:42:41;;;;;;;;;;;4.80;99.90;;;;;;5002754;28;19917;-80
2023/03/06 09:45:09;;;;;;;;;;;4.80;99.90;;;;;;5010820;28;20290;-79
2023/03/06 09:47:38;;;;;;;;;;;5.00;99.90;;;;;;5007772;28;19932;-78
2023/03/06 09:50:08;;;;;;;;;;;5.10;99.90;;;;;;4989753;28;19925;-78
2023/03/06 09:52:53;;;;;;;;;;;5.20;99.90;;;;;;4972010;28;19929;-78
2023/03/06 09:55:20;;;;;;;;;;;5.50;99.90;;;;;;4966963;28;19936;-81
2023/03/06 09:57:55;;;;;;;;;;;5.70;99.90;;;;;;4995514;28;19937;-83
2023/03/06 10:00:33;;;;;;;;;;;5.80;99.90;;;;;;4994962;28;19921;-80
2023/03/06 10:03:10;;;;;;;;;;;5.70;99.90;;;;;;5001405;28;19914;-79
2023/03/06 10:05:51;;;;;;;;;;;5.70;99.90;;;;;;4999243;28;20287;-81
2023/03/06 10:08:20;;;;;;;;;;;5.70;99.90;;;;;;4997505;28;19921;-80
2023/03/06 10:10:55;;;;;;;;;;;5.80;99.90;;;;;;4986348;28;19932;-81
2023/03/06 10:13:27;;;;;;;;;;;5.90;99.90;;;;;;4976030;28;19921;-78
2023/03/06 10:15:57;;;;;;;;;;;5.90;99.90;;;;;;4997488;28;19921;-78
2023/03/06 10:18:23;;;;;;;;;;;5.90;99.90;;;;;;4997977;28;20511;-82
2023/03/06 10:20:57;;;;;;;;;;;5.90;99.90;;;;;;4987377;28;19916;-79
2023/03/06 10:23:42;;;;;;;;;;;5.80;99.90;;;;;;4978581;28;19914;-79
2023/03/06 10:26:14;;;;;;;;;;;5.80;99.90;;;;;;4996982;28;19924;-78
2023/03/06 10:28:41;;;;;;;;;;;5.50;99.90;;;;;;4988013;28;19918;-80
2023/03/06 10:31:15;;;;;;;;;;;5.60;99.90;;;;;;4988376;28;19922;-79
2023/03/06 10:33:41;;;;;;;;;;;5.50;99.90;;;;;;4993692;28;19914;-80
2023/03/06 10:36:11;;;;;;;;;;;5.40;99.90;;;;;;4988083;28;20374;-78
2023/03/06 10:38:37;;;;;;;;;;;5.40;99.90;;;;;;4976641;28;20386;-76
2023/03/06 10:41:10;;;;;;;;;;;5.40;99.90;;;;;;5012477;28;19925;-78
2023/03/06 10:43:38;;;;;;;;;;;5.60;99.90;;;;;;4999060;28;20278;-77
2023/03/06 10:46:06;;;;;;;;;;;5.50;99.90;;;;;;4997691;28;19910;-77
2023/03/06 10:48:34;;;;;;;;;;;5.50;99.90;;;;;;4982416;28;19917;-77
2023/03/06 10:51:07;;;;;;;;;;;5.50;99.90;;;;;;4984813;28;19917;-78
2023/03/06 10:53:33;;;;;;;;;;;5.60;99.90;;;;;;4993836;28;19914;-78
2023/03/06 10:56:03;;;;;;;;;;;5.70;99.90;;;;;;5008487;28;19914;-77
2023/03/06 10:58:30;;;;;;;;;;;5.70;99.90;;;;;;5010017;28;20370;-77
2023/03/06 11:01:07;;;;;;;;;;;5.60;99.90;;;;;;4980487;28;19913;-78
2023/03/06 11:03:35;;;;;;;;;;;5.60;99.90;;;;;;4971222;28;20404;-77
2023/03/06 11:06:10;;;;;;;;;;;5.60;99.90;;;;;;4978534;28;19914;-77
2023/03/06 11:08:37;;;;;;;;;;;5.80;99.90;;;;;;4983875;28;19921;-76
2023/03/06 11:11:09;;;;;;;;;;;5.70;99.90;;;;;;4993603;28;19933;-76
2023/03/06 11:13:37;;;;;;;;;;;5.80;99.90;;;;;;4971904;28;19917;-76
2023/03/06 11:16:22;;;;;;;;;;;5.90;99.90;;;;;;4974080;28;19914;-75
2023/03/06 11:18:57;;;;;;;;;;;6.00;99.90;;;;;;4995269;28;19918;-75
2023/03/06 11:21:30;;;;;;;;;;;5.90;99.90;;;;;;4963305;28;20398;-75
2023/03/06 11:24:00;;;;;;;;;;;5.80;99.90;;;;;;4977927;28;19914;-75
2023/03/06 11:26:29;;;;;;;;;;;5.80;99.90;;;;;;4996838;28;19918;-76
2023/03/06 11:29:07;;;;;;;;;;;5.90;99.90;;;;;;4991061;28;19918;-82
2023/03/06 11:31:36;;;;;;;;;;;6.10;99.90;;;;;;5008269;28;19924;-76
2023/03/06 11:34:21;;;;;;;;;;;6.00;99.90;;;;;;4973739;28;19932;-76
2023/03/06 11:36:53;;;;;;;;;;;6.00;99.90;;;;;;5006481;28;19921;-77
2023/03/06 11:39:32;;;;;;;;;;;6.00;99.90;;;;;;4976395;28;19925;-78
2023/03/06 11:42:17;;;;;;;;;;;6.00;99.90;;;;;;4999341;28;20374;-76
2023/03/06 11:45:15;;;;;;;;;;;5.90;99.90;;;;;;4976546;28;19921;-77
2023/03/06 11:47:45;;;;;;;;;;;6.00;99.90;;;;;;4939154;28;19925;-77
2023/03/06 11:50:11;;;;;;;;;;;6.10;99.90;;;;;;4982468;28;19918;-77
2023/03/06 11:52:41;;;;;;;;;;;6.10;99.90;;;;;;5009794;28;19909;-76
2023/03/06 11:55:11;;;;;;;;;;;6.00;99.90;;;;;;4964320;28;19926;-77
2023/03/06 11:57:43;;;;;;;;;;;6.00;99.90;;;;;;4992864;28;19914;-75
2023/03/06 12:00:15;;;;;;;;;;;6.00;99.90;;;;;;4980025;28;19917;-75
2023/03/06 12:02:50;;;;;;;;;;;6.00;99.90;;;;;;4992772;28;20355;-76
2023/03/06 12:05:24;;;;;;;;;;;6.00;99.90;;;;;;4972297;28;19933;-76
2023/03/06 12:07:50;;;;;;;;;;;6.00;99.90;;;;;;4987519;28;19925;-77
2023/03/06 12:10:22;;;;;;;;;;;6.10;99.90;;;;;;4988466;28;19922;-75
2023/03/06 12:13:07;;;;;;;;;;;6.10;99.90;;;;;;4984320;28;19925;-76
2023/03/06 12:15:52;;;;;;;;;;;6.10;99.90;;;;;;4995187;28;19917;-77
2023/03/06 12:18:37;;;;;;;;;;;6.20;99.90;;;;;;4978508;28;19917;-76
2023/03/06 12:21:22;;;;;;;;;;;6.30;99.90;;;;;;4999401;28;20342;-75
2023/03/06 12:24:00;;;;;;;;;;;6.20;99.90;;;;;;4995088;28;20270;-76
2023/03/06 12:26:26;;;;;;;;;;;6.20;99.90;;;;;;4976884;28;19914;-76
2023/03/06 12:29:00;;;;;;;;;;;6.20;99.90;;;;;;4958772;28;19921;-75
2023/03/06 12:31:43;;;;;;;;;;;6.20;99.90;;;;;;4960949;28;19918;-75
2023/03/06 12:34:23;;;;;;;;;;;6.20;99.90;;;;;;4962783;28;20375;-77
2023/03/06 12:36:57;;;;;;;;;;;6.40;99.90;;;;;;4982766;28;19918;-78
2023/03/06 12:39:35;;;;;;;;;;;6.40;99.90;;;;;;4958941;28;19914;-76
2023/03/06 12:42:22;;;;;;;;;;;6.60;99.90;;;;;;4960909;28;19918;-76
2023/03/06 12:45:06;;;;;;;;;;;6.60;99.90;;;;;;4971958;28;19914;-76
2023/03/06 12:47:38;;;;;;;;;;;6.60;99.90;;;;;;4979360;28;19914;-77
2023/03/06 12:50:12;;;;;;;;;;;6.80;99.90;;;;;;4968383;28;19918;-75
2023/03/06 12:52:38;;;;;;;;;;;6.50;99.90;;;;;;4974413;28;19914;-77
2023/03/06 12:55:12;;;;;;;;;;;6.60;99.90;;;;;;4979850;28;20299;-78
2023/03/06 12:57:40;;;;;;;;;;;6.80;99.90;;;;;;4971098;28;20370;-77
2023/03/06 13:00:07;;;;;;;;;;;6.90;99.90;;;;;;4996879;28;19921;-78
2023/03/06 13:02:36;;;;;;;;;;;6.90;99.90;;;;;;4972853;28;20268;-79
2023/03/06 13:05:03;;;;;;;;;;;6.80;99.90;;;;;;4999986;28;19928;-78
2023/03/06 13:07:51;;;;;;;;;;;7.00;99.90;;;;;;4996984;28;20371;-77
2023/03/06 13:10:32;;;;;;;;;;;7.10;99.90;;;;;;4979610;28;19959;-76
2023/03/06 13:13:00;;;;;;;;;;;6.90;99.90;;;;;;4980957;28;19918;-76
2023/03/06 13:15:30;;;;;;;;;;;6.90;99.90;;;;;;4984693;28;19940;-76
2023/03/06 13:17:56;;;;;;;;;;;6.80;99.90;;;;;;4983525;28;19917;-76
2023/03/06 13:20:33;;;;;;;;;;;6.80;99.90;;;;;;4962493;28;19925;-78
2023/03/06 13:23:20;;;;;;;;;;;6.60;99.90;;;;;;4981997;28;19917;-77
2023/03/06 13:25:47;;;;;;;;;;;6.70;99.90;;;;;;4978582;28;20279;-77
2023/03/06 13:28:48;;;;;;;;;;;6.70;99.90;;;;;;4996326;28;19913;-77
2023/03/06 13:31:37;;;;;;;;;;;6.70;99.90;;;;;;4943507;28;20367;-77
2023/03/06 13:34:04;;;;;;;;;;;6.70;99.90;;;;;;4929071;28;19913;-76
2023/03/06 13:36:31;;;;;;;;;;;6.80;99.90;;;;;;4981689;28;19914;-76
2023/03/06 13:39:02;;;;;;;;;;;6.80;99.90;;;;;;4982176;28;20467;-77
2023/03/06 13:41:31;;;;;;;;;;;6.80;99.90;;;;;;4980239;28;20280;-77
2023/03/06 13:43:58;;;;;;;;;;;6.80;99.90;;;;;;4980739;28;19910;-77
2023/03/06 13:46:24;;;;;;;;;;;6.80;99.90;;;;;;5001005;28;19913;-77
2023/03/06 13:49:12;;;;;;;;;;;6.60;99.90;;;;;;4969844;28;19918;-77
2023/03/06 13:51:40;;;;;;;;;;;6.20;99.90;;;;;;4989333;28;19929;-77
2023/03/06 13:54:32;;;;;;;;;;;6.20;99.90;;;;;;4984657;28;19928;-78
2023/03/06 13:56:59;;;;;;;;;;;6.40;99.90;;;;;;4963627;28;20290;-78
2023/03/06 13:59:36;;;;;;;;;;;6.50;99.90;;;;;;4993366;28;19917;-77
2023/03/06 14:02:13;;;;;;;;;;;6.40;99.90;;;;;;4963517;28;19921;-77
2023/03/06 14:04:52;;;;;;;;;;;6.40;99.90;;;;;;4967105;28;20298;-79
2023/03/06 14:07:25;;;;;;;;;;;6.40;99.90;;;;;;4989820;28;20354;-79
2023/03/06 14:10:07;;;;;;;;;;;6.50;99.90;;;;;;4986336;28;19918;-78
2023/03/06 14:12:34;;;;;;;;;;;6.30;99.90;;;;;;4969733;28;19922;-79
2023/03/06 14:15:10;;;;;;;;;;;6.50;99.90;;;;;;4978384;28;19914;-78
2023/03/06 14:17:38;;;;;;;;;;;6.50;99.90;;;;;;4978083;28;19920;-79
2023/03/06 14:20:14;;;;;;;;;;;6.50;99.90;;;;;;4979272;28;19914;-76
2023/03/06 14:22:40;;;;;;;;;;;6.60;99.90;;;;;;5000657;28;19914;-76
2023/03/06 14:25:13;;;;;;;;;;;6.60;99.90;;;;;;4993982;28;19921;-77
2023/03/06 14:27:47;;;;;;;;;;;6.50;99.90;;;;;;4992036;28;20347;-76
2023/03/06 14:30:19;;;;;;;;;;;6.50;99.90;;;;;;4993699;28;19929;-76
2023/03/06 14:32:46;;;;;;;;;;;6.40;99.90;;;;;;4997498;28;19921;-76
2023/03/06 14:35:19;;;;;;;;;;;6.20;99.90;;;;;;4988239;28;19920;-75
2023/03/06 14:37:47;;;;;;;;;;;6.20;99.90;;;;;;5005012;28;19913;-77
2023/03/06 14:40:17;;;;;;;;;;;6.10;99.90;;;;;;4999149;28;19920;-75
2023/03/06 14:42:43;;;;;;;;;;;6.10;99.90;;;;;;4976832;28;19917;-76